CheckWX is a tool to help pilots better visualize weather data.  It is not intended as a substitute for an official pre-flight weather briefing.

05:09:05 UTC

ORBD TAF
Joint Base Balad Airport
Balad, Iraq
TAF ORBD 230240Z 2303/2409 VRB06KT 9999 FEW140 SCT280 QNH2991INS BECMG 2310/2311 13009KT 9999 VCSH SCT120 BKN180 QNH2987INS WND 090V180 TEMPO 2311/2315 6000 -SHRA VCTS BKN080CB BECMG 2314/2315 17009KT 8000 -SHRA VCTS FEW050 SCT080CB BKN150 QNH2975INS WND 140V210 TEMPO 2315/2320 VRB15G25KT 5000 -TSRA BKN040CB BECMG 2401/2402 11014G22KT 8000 -SHRA VCTS BKN030CB OVC080 QNH2967INS WND 060V160 TEMPO 2402/2409 VRB25G40KT 5000 -TSRA BKN025CB OVC050 TX21/2312Z TN09/2304Z

Mar-23@
03:00 UTC

Mar-23 @ 03:00 UTC

Mar-23@
10:00 UTC

Mar-23 @ 10:00 UTC

TAF ORBD 230240Z 2303/2409 VRB06KT 9999 FEW140 SCT280 QNH2991INS
Wind
  • Variable at 6 KTS
Cloud Levels
  • Few at 14,000' AGL
  • Scattered at 28,000' AGL

Mar-23@
10:00 UTC

Mar-23 @ 10:00 UTC

Mar-23@
14:00 UTC

Mar-23 @ 14:00 UTC

BECMG 2310/2311 13009KT 9999 VCSH SCT120 BKN180 QNH2987INS WND 090V180

Becoming

Becoming Conditions expected by Sat, Mar 23, 2019 @ 11:00 UTC

Wind
  • 130° at 9 KTS
Cloud Levels
  • Scattered at 12,000' AGL
  • Broken at 18,000' AGL

Mar-23@
11:00 UTC

Mar-23 @ 11:00 UTC

Mar-23@
15:00 UTC

Mar-23 @ 15:00 UTC

TEMPO 2311/2315 6000 -SHRA VCTS BKN080CB

Temporary

Temporary Changes expected for less than half the time period

Conditions
Light Rain, Area Thunderstorm
Cloud Levels
  • Broken at 8,000' AGL

Mar-23@
14:00 UTC

Mar-23 @ 14:00 UTC

Mar-24@
01:00 UTC

Mar-24 @ 01:00 UTC

BECMG 2314/2315 17009KT 8000 -SHRA VCTS FEW050 SCT080CB BKN150 QNH2975INS WND 140V210

Becoming

Becoming Conditions expected by Sat, Mar 23, 2019 @ 15:00 UTC

Wind
  • 170° at 9 KTS
Conditions
Light Rain, Area Thunderstorm
Cloud Levels
  • Few at 5,000' AGL
  • Scattered at 8,000' AGL
  • Broken at 15,000' AGL

Mar-23@
15:00 UTC

Mar-23 @ 15:00 UTC

Mar-23@
20:00 UTC

Mar-23 @ 20:00 UTC

TEMPO 2315/2320 VRB15G25KT 5000 -TSRA BKN040CB

Temporary

Temporary Changes expected for less than half the time period

Wind
  • Variable at 15 KTS
  • {Gusting to 25 KTS
Conditions
Light Thunderstorm, Light Rain
Cloud Levels
  • Broken at 4,000' AGL

Mar-24@
01:00 UTC

Mar-24 @ 01:00 UTC

Mar-24@
09:00 UTC

Mar-24 @ 09:00 UTC

BECMG 2401/2402 11014G22KT 8000 -SHRA VCTS BKN030CB OVC080 QNH2967INS WND 060V160

Becoming

Becoming Conditions expected by Sun, Mar 24, 2019 @ 02:00 UTC

Wind
  • 110° at 14 KTS
  • {Gusting to 22 KTS
Conditions
Light Rain, Area Thunderstorm
Cloud Levels
  • Broken at 3,000' AGL
  • Overcast at 8,000' AGL

Mar-24@
02:00 UTC

Mar-24 @ 02:00 UTC

Mar-24@
09:00 UTC

Mar-24 @ 09:00 UTC

TEMPO 2402/2409 VRB25G40KT 5000 -TSRA BKN025CB OVC050 TX21/2312Z TN09/2304Z

Temporary

Temporary Changes expected for less than half the time period

Wind
  • Variable at 25 KTS
  • {Gusting to 40 KTS
Conditions
Light Thunderstorm, Light Rain
Cloud Levels
  • Broken at 2,500' AGL
  • Overcast at 5,000' AGL